.
WxDataArchive / Data Records for 2008-01-20
2008-01-19 January 2008 2008-01-21

Data Records for Sunday, 20 January 2008

Time	Temp	Chill	HIndex	Humid	Dewpt	 Wind 	HiWind	WindDir	Rain 	Barom 
-----	----	-----	------	-----	-----	------	------	-------	-----	----- 
00:00	3.4	3.4	3.4	61	-7.0	2	7	248	0.00	30.304 
00:05	3.2	3.2	3.2	61	-7.2	3	9	270	0.00	30.302 
00:10	3.2	3.2	3.2	61	-7.2	2	9	270	0.00	30.301 
00:15	3.2	3.2	3.2	61	-7.2	2	5	270	0.00	30.299 
00:20	3.0	3.0	3.0	62	-7.0	2	10	270	0.00	30.300 
00:25	3.0	3.0	3.0	62	-7.0	2	7	248	0.00	30.298 
00:30	2.8	2.8	2.8	62	-7.2	2	9	270	0.00	30.298 
00:35	2.8	2.8	2.8	62	-7.2	3	7	270	0.00	30.298 
00:40	2.6	2.6	2.6	61	-7.7	3	6	270	0.00	30.299 
00:45	2.6	2.6	2.6	61	-7.7	2	7	248	0.00	30.299 
00:50	2.6	2.6	2.6	61	-7.7	2	3	270	0.00	30.299 
00:55	2.4	2.4	2.4	62	-7.6	1	4	270	0.00	30.299 
01:00	2.4	2.4	2.4	61	-7.9	2	7	270	0.00	30.299 
01:05	2.4	2.4	2.4	62	-7.6	1	6	248	0.00	30.301 
01:10	2.2	2.2	2.2	62	-7.8	1	4	270	0.00	30.301 
01:15	2.2	2.2	2.2	62	-7.8	1	4	248	0.00	30.300 
01:20	2.0	2.0	2.0	62	-8.0	1	3	248	0.00	30.300 
01:25	2.0	2.0	2.0	62	-8.0	2	6	270	0.00	30.303 
01:30	2.0	2.0	2.0	62	-8.0	2	5	270	0.00	30.302 
01:35	2.0	2.0	2.0	62	-8.0	1	7	270	0.00	30.302 
01:40	2.0	2.0	2.0	62	-8.0	2	6	270	0.00	30.302 
01:45	1.8	1.8	1.8	62	-8.2	2	7	248	0.00	30.301 
01:50	1.8	1.8	1.8	63	-7.8	2	6	270	0.00	30.302 
01:55	1.7	1.7	1.7	63	-7.9	2	5	270	0.00	30.302 
02:00	1.7	1.7	1.7	63	-7.9	2	6	270	0.00	30.302 
02:05	1.7	1.7	1.7	63	-7.9	2	6	270	0.00	30.301 
02:10	1.5	1.5	1.5	64	-7.8	1	6	270	0.00	30.301 
02:15	1.5	1.5	1.5	64	-7.8	2	6	248	0.00	30.304 
02:20	1.5	1.5	1.5	64	-7.8	1	3	248	0.00	30.305 
02:25	1.5	1.5	1.5	64	-7.8	2	6	270	0.00	30.309 
02:30	1.5	1.5	1.5	64	-7.8	2	6	248	0.00	30.314 
02:35	1.3	1.3	1.3	64	-8.0	1	8	248	0.00	30.316 
02:40	1.3	1.3	1.3	63	-8.3	3	6	248	0.00	30.315 
02:45	1.3	1.3	1.3	63	-8.3	2	6	270	0.00	30.315 
02:50	1.3	1.3	1.3	63	-8.3	3	7	270	0.00	30.316 
02:55	1.1	1.1	1.1	63	-8.5	2	7	270	0.00	30.317 
03:00	1.1	1.1	1.1	63	-8.5	2	6	270	0.00	30.318 
03:05	1.1	1.1	1.1	63	-8.5	2	5	270	0.00	30.319 
03:10	1.1	1.1	1.1	63	-8.5	3	9	270	0.00	30.320 
03:15	0.9	0.9	0.9	63	-8.7	2	6	270	0.00	30.321 
03:20	0.9	0.9	0.9	63	-8.7	1	5	248	0.00	30.324 
03:25	0.9	0.9	0.9	63	-8.7	1	5	248	0.00	30.326 
03:30	0.7	0.7	0.7	63	-8.9	2	9	270	0.00	30.325 
03:35	0.7	0.7	0.7	62	-9.2	2	6	270	0.00	30.326 
03:40	0.7	0.7	0.7	63	-8.9	2	7	248	0.00	30.330 
03:45	0.7	0.7	0.7	63	-8.9	3	12	270	0.00	30.333 
03:50	0.7	0.7	0.7	63	-8.9	3	11	248	0.00	30.334 
03:55	0.7	0.7	0.7	63	-8.9	3	10	270	0.00	30.335 
04:00	0.5	0.5	0.5	63	-9.1	2	5	248	0.00	30.335 
04:05	0.5	0.5	0.5	63	-9.1	2	7	248	0.00	30.337 
04:10	0.5	0.5	0.5	63	-9.1	3	7	270	0.00	30.337 
04:15	0.5	0.5	0.5	62	-9.4	3	10	270	0.00	30.339 
04:20	0.5	0.5	0.5	63	-9.1	2	11	248	0.00	30.341 
04:25	0.5	0.5	0.5	63	-9.1	2	7	270	0.00	30.342 
04:30	0.3	0.3	0.3	63	-9.3	1	4	248	0.00	30.345 
04:35	0.5	0.5	0.5	63	-9.1	2	8	270	0.00	30.340 
04:40	0.3	0.3	0.3	63	-9.3	3	9	248	0.00	30.342 
04:45	0.3	0.3	0.3	64	-9.0	2	9	248	0.00	30.345 
04:50	0.3	0.3	0.3	64	-9.0	1	7	270	0.00	30.344 
04:55	0.3	0.3	0.3	63	-9.3	2	8	248	0.00	30.347 
05:00	0.3	0.3	0.3	64	-9.0	2	5	270	0.00	30.352 
05:05	0.1	0.1	0.1	64	-9.1	2	10	248	0.00	30.354 
05:10	0.1	0.1	0.1	64	-9.1	2	6	270	0.00	30.353 
05:15	0.1	0.1	0.1	64	-9.1	2	5	270	0.00	30.354 
05:20	0.1	0.1	0.1	64	-9.1	1	4	270	0.00	30.354 
05:25	0.1	0.1	0.1	63	-9.5	3	7	270	0.00	30.354 
05:30	0.1	0.1	0.1	63	-9.5	2	6	270	0.00	30.359 
05:35	0.1	0.1	0.1	63	-9.5	3	7	270	0.00	30.356 
05:40	0.1	0.1	0.1	63	-9.5	2	5	270	0.00	30.357 
05:45	0.1	0.1	0.1	63	-9.5	2	11	270	0.00	30.362 
05:50	0.0	0.0	0.0	63	-9.6	2	10	270	0.00	30.367 
05:55	0.0	0.0	0.0	63	-9.6	1	4	248	0.00	30.366 
06:00	0.0	0.0	0.0	64	-9.2	2	6	248	0.00	30.366 
06:05	0.0	0.0	0.0	64	-9.2	2	6	270	0.00	30.370 
06:10	0.0	0.0	0.0	64	-9.2	2	7	270	0.00	30.371 
06:15	0.0	0.0	0.0	64	-9.2	1	4	248	0.00	30.376 
06:20	-0.2	-0.2	-0.2	64	-9.4	2	6	248	0.00	30.375 
06:25	-0.2	-0.2	-0.2	64	-9.4	2	4	248	0.00	30.375 
06:30	-0.2	-0.2	-0.2	64	-9.4	2	6	248	0.00	30.378 
06:35	-0.2	-0.2	-0.2	64	-9.4	2	11	248	0.00	30.380 
06:40	-0.2	-0.2	-0.2	64	-9.4	2	6	248	0.00	30.380 
06:45	-0.4	-0.4	-0.4	64	-9.6	1	5	270	0.00	30.382 
06:50	-0.4	-0.4	-0.4	64	-9.6	1	5	248	0.00	30.384 
06:55	-0.4	-0.4	-0.4	64	-9.6	1	5	248	0.00	30.384 
07:00	-0.4	-0.4	-0.4	63	-9.9	2	6	248	0.00	30.385 
07:05	-0.4	-0.4	-0.4	63	-9.9	2	7	270	0.00	30.387 
07:10	-0.4	-0.4	-0.4	64	-9.6	2	7	270	0.00	30.388 
07:15	-0.4	-0.4	-0.4	63	-9.9	3	7	248	0.00	30.391 
07:20	-0.4	-0.4	-0.4	64	-9.6	2	9	248	0.00	30.398 
07:25	-0.4	-0.4	-0.4	64	-9.6	2	7	248	0.00	30.399 
07:30	-0.6	-0.6	-0.6	64	-9.8	2	7	248	0.00	30.399 
07:35	-0.6	-0.6	-0.6	64	-9.8	2	6	248	0.00	30.402 
07:40	-0.6	-0.6	-0.6	64	-9.8	2	9	248	0.00	30.402 
07:45	-0.6	-0.6	-0.6	64	-9.8	2	5	248	0.00	30.404 
07:50	-0.6	-0.6	-0.6	64	-9.8	1	4	248	0.00	30.407 
07:55	-0.8	-0.8	-0.8	64	-10.0	2	7	248	0.00	30.407 
08:00	-0.8	-0.8	-0.8	64	-10.0	1	9	248	0.00	30.412 
08:05	-0.8	-0.8	-0.8	64	-10.0	2	6	270	0.00	30.415 
08:10	-0.6	-0.6	-0.6	64	-9.8	1	6	248	0.00	30.414 
08:15	-0.6	-0.6	-0.6	64	-9.8	1	5	270	0.00	30.419 
08:20	-0.6	-0.6	-0.6	64	-9.8	2	6	248	0.00	30.421 
08:25	-0.6	-0.6	-0.6	63	-10.1	2	9	248	0.00	30.422 
08:30	-0.4	-0.4	-0.4	63	-9.9	2	9	248	0.00	30.421 
08:35	-0.2	-0.2	-0.2	63	-9.8	2	5	248	0.00	30.421 
08:40	0.0	0.0	0.0	63	-9.6	2	7	248	0.00	30.427 
08:45	0.1	-8.8	0.1	61	-10.1	4	9	248	0.00	30.428 
08:50	0.1	0.1	0.1	62	-9.8	3	10	270	0.00	30.432 
08:55	0.3	0.3	0.3	61	-9.9	3	10	248	0.00	30.434 
09:00	0.5	0.5	0.5	61	-9.7	2	6	270	0.00	30.434 
09:05	0.7	0.7	0.7	61	-9.5	3	6	270	0.00	30.435 
09:10	0.9	0.9	0.9	61	-9.4	2	6	270	0.00	30.438 
09:15	1.1	1.1	1.1	61	-9.2	2	7	270	0.00	30.446 
09:20	1.5	1.5	1.5	61	-8.8	2	5	270	0.00	30.443 
09:25	1.7	1.7	1.7	61	-8.6	1	4	270	0.00	30.439 
09:30	2.0	2.0	2.0	61	-8.3	1	4	270	0.00	30.447 
09:35	2.4	2.4	2.4	60	-8.3	3	7	248	0.00	30.450 
09:40	2.6	2.6	2.6	60	-8.1	3	9	270	0.00	30.453 
09:45	2.8	2.8	2.8	59	-8.2	3	9	270	0.00	30.458 
09:50	3.0	3.0	3.0	59	-8.0	3	11	270	0.00	30.464 
09:55	3.0	-5.4	3.0	59	-8.0	4	10	270	0.00	30.465 
10:00	3.4	-5.0	3.4	59	-7.7	4	10	270	0.00	30.472 
10:05	3.5	3.5	3.5	59	-7.6	3	9	270	0.00	30.475 
10:10	3.7	3.7	3.7	58	-7.7	3	10	248	0.00	30.478 
10:15	3.9	3.9	3.9	58	-7.5	3	9	270	0.00	30.481 
10:20	4.3	4.3	4.3	57	-7.5	3	11	292	0.00	30.485 
10:25	4.3	-3.9	4.3	55	-8.2	4	16	270	0.00	30.492 
10:30	4.3	-3.9	4.3	54	-8.6	4	12	248	0.00	30.493 
10:35	4.7	4.7	4.7	53	-8.6	3	13	270	0.00	30.493 
10:40	4.5	-5.2	4.5	51	-9.6	5	14	270	0.00	30.493 
10:45	4.8	4.8	4.8	52	-8.9	3	11	270	0.00	30.494 
10:50	5.4	5.4	5.4	49	-9.6	3	10	270	0.00	30.494 
10:55	5.8	5.8	5.8	50	-8.8	3	6	270	0.00	30.498 
11:00	5.8	5.8	5.8	47	-10.0	3	8	270	0.00	30.496 
11:05	6.1	6.1	6.1	48	-9.3	2	9	270	0.00	30.498 
11:10	6.9	6.9	6.9	48	-8.6	2	9	270	0.00	30.498 
11:15	6.9	6.9	6.9	47	-9.0	3	12	270	0.00	30.499 
11:20	7.0	7.0	7.0	45	-9.8	3	10	270	0.00	30.506 
11:25	7.4	7.4	7.4	46	-9.0	2	5	270	0.00	30.505 
11:30	7.4	-0.3	7.4	45	-9.4	4	10	270	0.00	30.502 
11:35	7.4	-1.8	7.4	45	-9.4	5	10	248	0.00	30.503 
11:40	7.7	0.0	7.7	45	-9.2	4	15	270	0.00	30.501 
11:45	8.3	8.3	8.3	44	-9.1	3	8	292	0.00	30.495 
11:50	8.6	8.6	8.6	43	-9.3	3	6	270	0.00	30.499 
11:55	9.0	9.0	9.0	41	-9.9	3	7	270	0.00	30.499 
12:00	8.8	8.8	8.8	43	-9.1	3	10	270	0.00	30.496 
12:05	9.5	9.5	9.5	43	-8.4	2	6	270	0.00	30.499 
12:10	9.9	9.9	9.9	41	-9.0	3	9	270	0.00	30.500 
12:15	9.7	2.3	9.7	42	-8.7	4	12	270	0.00	30.499 
12:20	9.9	9.9	9.9	39	-10.0	3	10	270	0.00	30.503 
12:25	9.5	2.1	9.5	40	-9.9	4	11	270	0.00	30.502 
12:30	9.7	2.3	9.7	42	-8.7	4	11	270	0.00	30.500 
12:35	9.7	2.3	9.7	41	-9.2	4	11	270	0.00	30.496 
12:40	9.9	9.9	9.9	42	-8.5	2	6	270	0.00	30.496 
12:45	10.9	10.9	10.9	41	-8.1	2	7	270	0.00	30.500 
12:50	10.4	1.7	10.4	40	-9.1	5	12	270	0.00	30.498 
12:55	10.4	3.1	10.4	41	-8.6	4	12	270	0.00	30.499 
13:00	10.7	10.7	10.7	40	-8.8	3	9	270	0.00	30.499 
13:05	11.1	11.1	11.1	41	-7.9	2	6	270	0.00	30.500 
13:10	11.4	11.4	11.4	41	-7.7	2	7	270	0.00	30.497 
13:15	11.2	11.2	11.2	39	-8.9	2	7	270	0.00	30.493 
13:20	11.1	3.9	11.1	38	-9.5	4	10	270	0.00	30.493 
13:25	11.1	3.9	11.1	39	-9.0	4	10	270	0.00	30.492 
13:30	11.6	11.6	11.6	38	-9.0	3	10	270	0.00	30.493 
13:35	11.7	11.7	11.7	37	-9.5	3	11	270	0.00	30.496 
13:40	12.1	12.1	12.1	39	-8.1	3	10	270	0.00	30.496 
13:45	11.9	4.9	11.9	36	-9.9	4	11	270	0.00	30.492 
13:50	11.9	11.9	11.9	36	-9.9	3	10	270	0.00	30.490 
13:55	12.1	12.1	12.1	36	-9.7	3	9	270	0.00	30.490 
14:00	12.3	12.3	12.3	34	-10.7	3	9	270	0.00	30.490 
14:05	12.8	12.8	12.8	35	-9.6	2	6	270	0.00	30.490 
14:10	12.9	12.9	12.9	36	-9.0	1	6	248	0.00	30.489 
14:15	13.1	13.1	13.1	37	-8.2	2	11	270	0.00	30.491 
14:20	13.3	13.3	13.3	35	-9.2	2	6	270	0.00	30.492 
14:25	13.1	13.1	13.1	33	-10.5	3	7	270	0.00	30.493 
14:30	13.1	13.1	13.1	35	-9.4	1	4	270	0.00	30.492 
14:35	13.3	13.3	13.3	36	-8.6	2	5	248	0.00	30.494 
14:40	13.5	13.5	13.5	35	-9.0	2	4	248	0.00	30.496 
14:45	13.5	13.5	13.5	35	-9.0	3	10	292	0.00	30.502 
14:50	13.3	13.3	13.3	36	-8.6	3	10	270	0.00	30.501 
14:55	13.1	13.1	13.1	35	-9.4	3	6	270	0.00	30.501 
15:00	13.3	13.3	13.3	36	-8.6	3	10	270	0.00	30.502 
15:05	13.1	13.1	13.1	36	-8.8	2	10	270	0.00	30.503 
15:10	13.8	13.8	13.8	38	-7.1	1	5	270	0.00	30.503 
15:15	14.0	14.0	14.0	35	-8.6	2	6	270	0.00	30.498 
15:20	13.8	13.8	13.8	36	-8.2	3	12	270	0.00	30.501 
15:25	13.3	5.1	13.3	35	-9.2	5	13	270	0.00	30.504 
15:30	13.6	13.6	13.6	36	-8.3	2	11	270	0.00	30.505 
15:35	14.0	14.0	14.0	36	-8.0	2	10	248	0.00	30.505 
15:40	14.1	14.1	14.1	34	-9.1	3	13	270	0.00	30.504 
15:45	14.1	14.1	14.1	34	-9.1	3	13	270	0.00	30.505 
15:50	14.1	14.1	14.1	33	-9.7	3	7	270	0.00	30.506 
15:55	14.1	7.4	14.1	34	-9.1	4	11	270	0.00	30.506 
16:00	14.1	14.1	14.1	34	-9.1	3	10	270	0.00	30.508 
16:05	14.1	14.1	14.1	34	-9.1	3	9	270	0.00	30.509 
16:10	14.1	14.1	14.1	35	-8.5	3	7	270	0.00	30.509 
16:15	14.1	14.1	14.1	36	-7.9	1	4	270	0.00	30.508 
16:20	14.0	7.3	14.0	35	-8.6	4	11	248	0.00	30.508 
16:25	13.8	13.8	13.8	35	-8.7	3	10	270	0.00	30.514 
16:30	13.6	13.6	13.6	34	-9.5	3	10	270	0.00	30.516 
16:35	13.6	13.6	13.6	35	-8.9	3	10	248	0.00	30.516 
16:40	13.5	6.7	13.5	35	-9.0	4	11	270	0.00	30.515 
16:45	13.3	13.3	13.3	36	-8.6	2	9	248	0.00	30.518 
16:50	13.3	13.3	13.3	36	-8.6	2	6	270	0.00	30.520 
16:55	13.5	13.5	13.5	36	-8.4	1	4	248	0.00	30.520 
17:00	13.3	13.3	13.3	35	-9.2	3	9	248	0.00	30.522 
17:05	13.1	13.1	13.1	37	-8.2	1	2	270	0.00	30.523 
17:10	12.9	12.9	12.9	37	-8.4	1	3	248	0.00	30.524 
17:15	12.9	12.9	12.9	38	-7.9	1	4	248	0.00	30.525 
17:20	12.8	12.8	12.8	37	-8.5	2	6	248	0.00	30.527 
17:25	12.6	12.6	12.6	37	-8.7	1	7	270	0.00	30.530 
17:30	12.4	12.4	12.4	36	-9.4	1	5	248	0.00	30.533 
17:35	12.3	12.3	12.3	36	-9.5	1	4	270	0.00	30.535 
17:40	12.1	12.1	12.1	37	-9.1	1	2	270	0.00	30.536 
17:45	11.9	11.9	11.9	38	-8.8	1	3	248	0.00	30.537 
17:50	11.9	11.9	11.9	38	-8.8	2	9	270	0.00	30.537 
17:55	11.9	11.9	11.9	37	-9.3	1	4	248	0.00	30.538 
18:00	11.7	11.7	11.7	39	-8.4	0	2	248	0.00	30.539 
18:05	11.6	11.6	11.6	39	-8.5	0	4	248	0.00	30.539 
18:10	11.6	11.6	11.6	40	-8.0	1	5	248	0.00	30.540 
18:15	11.4	11.4	11.4	40	-8.2	1	5	248	0.00	30.545 
18:20	11.4	11.4	11.4	41	-7.7	0	4	248	0.00	30.549 
18:25	11.4	11.4	11.4	41	-7.7	0	3	248	0.00	30.553 
18:30	11.2	11.2	11.2	41	-7.9	0	2	270	0.00	30.555 
18:35	11.2	11.2	11.2	41	-7.9	1	4	248	0.00	30.555 
18:40	11.2	11.2	11.2	42	-7.4	0	4	248	0.00	30.555 
18:45	11.1	11.1	11.1	42	-7.5	1	5	248	0.00	30.560 
18:50	11.1	11.1	11.1	43	-7.0	0	2	248	0.00	30.566 
18:55	11.1	11.1	11.1	43	-7.0	0	2	248	0.00	30.569 
19:00	10.9	10.9	10.9	43	-7.2	1	6	248	0.00	30.571 
19:05	10.9	10.9	10.9	43	-7.2	1	4	248	0.00	30.572 
19:10	10.9	10.9	10.9	44	-6.7	0	1	225	0.00	30.572 
19:15	10.7	10.7	10.7	44	-6.9	0	3	248	0.00	30.574 
19:20	10.7	10.7	10.7	44	-6.9	1	4	248	0.00	30.579 
19:25	10.5	10.5	10.5	44	-7.1	0	2	248	0.00	30.582 
19:30	10.5	10.5	10.5	45	-6.6	0	3	248	0.00	30.585 
19:35	10.5	10.5	10.5	45	-6.6	0	2	248	0.00	30.586 
19:40	10.5	10.5	10.5	45	-6.6	0	2	248	0.00	30.587 
19:45	10.4	10.4	10.4	45	-6.7	1	5	248	0.00	30.590 
19:50	10.5	10.5	10.5	45	-6.6	0	2	248	0.00	30.588 
19:55	10.4	10.4	10.4	46	-6.2	0	3	248	0.00	30.592 
20:00	10.4	10.4	10.4	46	-6.2	0	2	248	0.00	30.592 
20:05	10.4	10.4	10.4	46	-6.2	0	2	248	0.00	30.591 
20:10	10.4	10.4	10.4	46	-6.2	0	1	248	0.00	30.593 
20:15	10.4	10.4	10.4	46	-6.2	1	3	248	0.00	30.596 
20:20	10.4	10.4	10.4	46	-6.2	1	4	248	0.00	30.598 
20:25	10.4	10.4	10.4	46	-6.2	0	3	270	0.00	30.602 
20:30	10.2	10.2	10.2	47	-6.0	0	2	248	0.00	30.602 
20:35	10.2	10.2	10.2	47	-6.0	0	1	248	0.00	30.600 
20:40	10.0	10.0	10.0	48	-5.7	0	1	248	0.00	30.600 
20:45	9.9	9.9	9.9	48	-5.8	0	1	248	0.00	30.602 
20:50	9.7	9.7	9.7	48	-6.0	0	1	248	0.00	30.601 
20:55	9.7	9.7	9.7	49	-5.6	0	1	248	0.00	30.601 
21:00	9.5	9.5	9.5	49	-5.8	0	2	248	0.00	30.601 
21:05	9.5	9.5	9.5	49	-5.8	0	2	248	0.00	30.601 
21:10	9.5	9.5	9.5	49	-5.8	0	3	248	0.00	30.601 
21:15	9.5	9.5	9.5	49	-5.8	0	1	248	0.00	30.603 
21:20	9.3	9.3	9.3	49	-6.0	0	2	248	0.00	30.605 
21:25	9.3	9.3	9.3	49	-6.0	0	3	248	0.00	30.607 
21:30	9.3	9.3	9.3	50	-5.5	0	2	248	0.00	30.611 
21:35	9.3	9.3	9.3	50	-5.5	0	1	248	0.00	30.611 
21:40	9.2	9.2	9.2	50	-5.6	0	3	248	0.00	30.611 
21:45	9.2	9.2	9.2	50	-5.6	0	2	248	0.00	30.615 
21:50	9.2	9.2	9.2	50	-5.6	0	2	248	0.00	30.616 
21:55	9.2	9.2	9.2	50	-5.6	0	2	248	0.00	30.616 
22:00	9.0	9.0	9.0	51	-5.4	0	2	248	0.00	30.617 
22:05	9.0	9.0	9.0	51	-5.4	0	1	248	0.00	30.615 
22:10	8.8	8.8	8.8	51	-5.6	0	2	248	0.00	30.614 
22:15	8.8	8.8	8.8	52	-5.2	0	1	248	0.00	30.614 
22:20	8.8	8.8	8.8	52	-5.2	0	2	248	0.00	30.615 
22:25	8.8	8.8	8.8	52	-5.2	0	2	248	0.00	30.616 
22:30	8.8	8.8	8.8	52	-5.2	1	3	248	0.00	30.621 
22:35	8.8	8.8	8.8	52	-5.2	0	2	248	0.00	30.618 
22:40	9.0	9.0	9.0	52	-5.0	1	3	248	0.00	30.617 
22:45	9.0	9.0	9.0	52	-5.0	0	1	248	0.00	30.619 
22:50	8.8	8.8	8.8	52	-5.2	0	1	248	0.00	30.621 
22:55	8.8	8.8	8.8	53	-4.8	0	2	248	0.00	30.622 
23:00	8.8	8.8	8.8	53	-4.8	0	1	248	0.00	30.625 
23:05	8.6	8.6	8.6	53	-5.0	0	1	248	0.00	30.623 
23:10	8.6	8.6	8.6	53	-5.0	0	2	248	0.00	30.625 
23:15	8.6	8.6	8.6	54	-4.6	0	1	248	0.00	30.627 
23:20	8.6	8.6	8.6	54	-4.6	0	4	248	0.00	30.628 
23:25	8.6	8.6	8.6	54	-4.6	0	2	248	0.00	30.627 
23:30	8.6	8.6	8.6	54	-4.6	0	2	248	0.00	30.627 
23:35	8.6	8.6	8.6	54	-4.6	0	2	225	0.00	30.627 
23:40	8.4	8.4	8.4	54	-4.8	0	2	225	0.00	30.631 
23:45	8.4	8.4	8.4	55	-4.4	0	3	248	0.00	30.634 
23:50	8.4	8.4	8.4	55	-4.4	0	2	248	0.00	30.633 
23:55	8.4	8.4	8.4	56	-4.0	0	1	248	0.00	30.634 

CoCoRaHS
IN-AL-39
A2 Web Hosting
Creative Commons License
GoDaddy
Look for:

loaded 2017-10-17 00:13:52 • last modified 2010-11-18 10:43:29
Privacy PolicyDisclaimer
• wx.awcolley.com is powered by PmWiki v.2002016 •
• all content (unless otherwise noted) © 2017 A W Colley